sensor_id;sensor_type;location;lat;lon;timestamp;temperature;humidity
19680;DHT22;9989;48.962;9.182;2022-11-09T00:00:18;11.90;99.90
19680;DHT22;9989;48.962;9.182;2022-11-09T00:02:44;12.00;99.90
19680;DHT22;9989;48.962;9.182;2022-11-09T00:05:09;12.00;99.90
19680;DHT22;9989;48.962;9.182;2022-11-09T00:07:35;12.00;99.90
19680;DHT22;9989;48.962;9.182;2022-11-09T00:10:01;12.00;99.90
19680;DHT22;9989;48.962;9.182;2022-11-09T00:12:27;12.00;99.90
19680;DHT22;9989;48.962;9.182;2022-11-09T00:14:52;12.00;99.90
19680;DHT22;9989;48.962;9.182;2022-11-09T00:17:18;12.00;99.90
19680;DHT22;9989;48.962;9.182;2022-11-09T00:19:44;12.00;99.90
19680;DHT22;9989;48.962;9.182;2022-11-09T00:22:09;11.90;99.90
19680;DHT22;9989;48.962;9.182;2022-11-09T00:24:35;11.90;99.90
19680;DHT22;9989;48.962;9.182;2022-11-09T00:27:00;11.90;99.90
19680;DHT22;9989;48.962;9.182;2022-11-09T00:29:27;11.90;99.90
19680;DHT22;9989;48.962;9.182;2022-11-09T00:31:52;11.90;99.90
19680;DHT22;9989;48.962;9.182;2022-11-09T00:34:18;11.90;99.90
19680;DHT22;9989;48.962;9.182;2022-11-09T00:36:43;11.90;99.90
19680;DHT22;9989;48.962;9.182;2022-11-09T00:39:09;11.90;99.90
19680;DHT22;9989;48.962;9.182;2022-11-09T00:41:34;12.00;99.90
19680;DHT22;9989;48.962;9.182;2022-11-09T00:44:00;12.00;99.90
19680;DHT22;9989;48.962;9.182;2022-11-09T00:46:26;12.00;99.90
19680;DHT22;9989;48.962;9.182;2022-11-09T00:48:54;12.00;99.90
19680;DHT22;9989;48.962;9.182;2022-11-09T00:51:21;12.00;99.90
19680;DHT22;9989;48.962;9.182;2022-11-09T00:53:46;11.90;99.90
19680;DHT22;9989;48.962;9.182;2022-11-09T00:56:18;11.90;99.90
19680;DHT22;9989;48.962;9.182;2022-11-09T00:58:44;11.90;99.90
19680;DHT22;9989;48.962;9.182;2022-11-09T01:01:12;11.90;99.90
19680;DHT22;9989;48.962;9.182;2022-11-09T01:03:38;11.90;99.90
19680;DHT22;9989;48.962;9.182;2022-11-09T01:06:04;11.90;99.90
19680;DHT22;9989;48.962;9.182;2022-11-09T01:08:31;11.90;99.90
19680;DHT22;9989;48.962;9.182;2022-11-09T01:10:57;11.90;99.90
19680;DHT22;9989;48.962;9.182;2022-11-09T01:13:27;11.90;99.90
19680;DHT22;9989;48.962;9.182;2022-11-09T01:15:53;11.90;99.90
19680;DHT22;9989;48.962;9.182;2022-11-09T01:18:20;12.00;99.90
19680;DHT22;9989;48.962;9.182;2022-11-09T01:20:48;12.00;99.90
19680;DHT22;9989;48.962;9.182;2022-11-09T01:23:15;12.00;99.90
19680;DHT22;9989;48.962;9.182;2022-11-09T01:25:41;12.00;99.90
19680;DHT22;9989;48.962;9.182;2022-11-09T01:28:08;12.00;99.90
19680;DHT22;9989;48.962;9.182;2022-11-09T01:30:35;12.10;99.90
19680;DHT22;9989;48.962;9.182;2022-11-09T01:33:06;12.00;99.90
19680;DHT22;9989;48.962;9.182;2022-11-09T01:35:33;12.00;99.90
19680;DHT22;9989;48.962;9.182;2022-11-09T01:37:59;12.10;99.90
19680;DHT22;9989;48.962;9.182;2022-11-09T01:40:27;12.10;99.90
19680;DHT22;9989;48.962;9.182;2022-11-09T01:42:52;12.10;99.90
19680;DHT22;9989;48.962;9.182;2022-11-09T01:48:01;12.20;99.90
19680;DHT22;9989;48.962;9.182;2022-11-09T01:50:35;12.20;99.90
19680;DHT22;9989;48.962;9.182;2022-11-09T01:53:03;12.30;99.90
19680;DHT22;9989;48.962;9.182;2022-11-09T01:55:30;12.30;99.90
19680;DHT22;9989;48.962;9.182;2022-11-09T01:58:06;12.30;99.90
19680;DHT22;9989;48.962;9.182;2022-11-09T02:00:34;12.30;99.90
19680;DHT22;9989;48.962;9.182;2022-11-09T02:03:06;12.30;99.90
19680;DHT22;9989;48.962;9.182;2022-11-09T02:05:35;12.30;99.90
19680;DHT22;9989;48.962;9.182;2022-11-09T02:08:04;12.40;99.90
19680;DHT22;9989;48.962;9.182;2022-11-09T02:10:36;12.40;99.90
19680;DHT22;9989;48.962;9.182;2022-11-09T02:13:04;12.40;99.90
19680;DHT22;9989;48.962;9.182;2022-11-09T02:15:31;12.40;99.90
19680;DHT22;9989;48.962;9.182;2022-11-09T02:17:57;12.40;99.90
19680;DHT22;9989;48.962;9.182;2022-11-09T02:20:26;12.40;99.90
19680;DHT22;9989;48.962;9.182;2022-11-09T02:22:52;12.40;99.90
19680;DHT22;9989;48.962;9.182;2022-11-09T02:25:18;12.40;99.90
19680;DHT22;9989;48.962;9.182;2022-11-09T02:27:44;12.40;99.90
19680;DHT22;9989;48.962;9.182;2022-11-09T02:30:11;12.40;99.90
19680;DHT22;9989;48.962;9.182;2022-11-09T02:32:37;12.40;99.90
19680;DHT22;9989;48.962;9.182;2022-11-09T02:35:03;12.40;99.90
19680;DHT22;9989;48.962;9.182;2022-11-09T02:37:41;12.40;99.90
19680;DHT22;9989;48.962;9.182;2022-11-09T02:40:14;12.40;99.90
19680;DHT22;9989;48.962;9.182;2022-11-09T02:42:41;12.40;99.90
19680;DHT22;9989;48.962;9.182;2022-11-09T02:45:07;12.40;99.90
19680;DHT22;9989;48.962;9.182;2022-11-09T02:47:32;12.30;99.90
19680;DHT22;9989;48.962;9.182;2022-11-09T02:49:58;12.30;99.90
19680;DHT22;9989;48.962;9.182;2022-11-09T02:52:24;12.30;99.90
19680;DHT22;9989;48.962;9.182;2022-11-09T02:54:50;12.30;99.90
19680;DHT22;9989;48.962;9.182;2022-11-09T02:57:15;12.30;99.90
19680;DHT22;9989;48.962;9.182;2022-11-09T02:59:41;12.30;99.90
19680;DHT22;9989;48.962;9.182;2022-11-09T03:02:06;12.30;99.90
19680;DHT22;9989;48.962;9.182;2022-11-09T03:04:32;12.40;99.90
19680;DHT22;9989;48.962;9.182;2022-11-09T03:06:57;12.30;99.90
19680;DHT22;9989;48.962;9.182;2022-11-09T03:09:23;12.30;99.90
19680;DHT22;9989;48.962;9.182;2022-11-09T03:11:48;12.30;99.90
19680;DHT22;9989;48.962;9.182;2022-11-09T03:14:15;12.30;99.90
19680;DHT22;9989;48.962;9.182;2022-11-09T03:16:40;12.30;99.90
19680;DHT22;9989;48.962;9.182;2022-11-09T03:19:06;12.30;99.90
19680;DHT22;9989;48.962;9.182;2022-11-09T03:21:32;12.30;99.90
19680;DHT22;9989;48.962;9.182;2022-11-09T03:23:58;12.30;99.90
19680;DHT22;9989;48.962;9.182;2022-11-09T03:26:23;12.30;99.90
19680;DHT22;9989;48.962;9.182;2022-11-09T03:28:52;12.30;99.90
19680;DHT22;9989;48.962;9.182;2022-11-09T03:31:17;12.30;99.90
19680;DHT22;9989;48.962;9.182;2022-11-09T03:33:43;12.40;99.90
19680;DHT22;9989;48.962;9.182;2022-11-09T03:36:08;12.30;99.90
19680;DHT22;9989;48.962;9.182;2022-11-09T03:38:34;12.30;99.90
19680;DHT22;9989;48.962;9.182;2022-11-09T03:41:00;12.30;99.90
19680;DHT22;9989;48.962;9.182;2022-11-09T03:43:27;12.30;99.90
19680;DHT22;9989;48.962;9.182;2022-11-09T03:45:53;12.30;99.90
19680;DHT22;9989;48.962;9.182;2022-11-09T03:48:19;12.30;99.90
19680;DHT22;9989;48.962;9.182;2022-11-09T03:50:44;12.30;99.90
19680;DHT22;9989;48.962;9.182;2022-11-09T03:53:10;12.30;99.90
19680;DHT22;9989;48.962;9.182;2022-11-09T03:55:37;12.30;99.90
19680;DHT22;9989;48.962;9.182;2022-11-09T03:58:03;12.30;99.90
19680;DHT22;9989;48.962;9.182;2022-11-09T04:00:30;12.40;99.90
19680;DHT22;9989;48.962;9.182;2022-11-09T04:02:56;12.30;99.90
19680;DHT22;9989;48.962;9.182;2022-11-09T04:05:21;12.30;99.90
19680;DHT22;9989;48.962;9.182;2022-11-09T04:07:53;12.30;99.90
19680;DHT22;9989;48.962;9.182;2022-11-09T04:10:19;12.30;99.90
19680;DHT22;9989;48.962;9.182;2022-11-09T04:12:45;12.30;99.90
19680;DHT22;9989;48.962;9.182;2022-11-09T04:15:11;12.20;99.90
19680;DHT22;9989;48.962;9.182;2022-11-09T04:17:41;12.20;99.90
19680;DHT22;9989;48.962;9.182;2022-11-09T04:20:09;12.20;99.90
19680;DHT22;9989;48.962;9.182;2022-11-09T04:22:35;12.20;99.90
19680;DHT22;9989;48.962;9.182;2022-11-09T04:25:00;12.10;99.90
19680;DHT22;9989;48.962;9.182;2022-11-09T04:27:26;12.10;99.90
19680;DHT22;9989;48.962;9.182;2022-11-09T04:29:51;12.10;99.90
19680;DHT22;9989;48.962;9.182;2022-11-09T04:32:17;12.10;99.90
19680;DHT22;9989;48.962;9.182;2022-11-09T04:34:43;12.10;99.90
19680;DHT22;9989;48.962;9.182;2022-11-09T04:37:09;12.10;99.90
19680;DHT22;9989;48.962;9.182;2022-11-09T04:39:35;12.10;99.90
19680;DHT22;9989;48.962;9.182;2022-11-09T04:42:01;12.10;99.90
19680;DHT22;9989;48.962;9.182;2022-11-09T04:44:27;12.10;99.90
19680;DHT22;9989;48.962;9.182;2022-11-09T04:46:53;12.10;99.90
19680;DHT22;9989;48.962;9.182;2022-11-09T04:49:19;12.10;99.90
19680;DHT22;9989;48.962;9.182;2022-11-09T04:51:45;12.10;99.90
19680;DHT22;9989;48.962;9.182;2022-11-09T04:54:10;12.10;99.90
19680;DHT22;9989;48.962;9.182;2022-11-09T04:56:36;12.10;99.90
19680;DHT22;9989;48.962;9.182;2022-11-09T04:59:01;12.10;99.90
19680;DHT22;9989;48.962;9.182;2022-11-09T05:01:27;12.10;99.90
19680;DHT22;9989;48.962;9.182;2022-11-09T05:03:52;12.10;99.90
19680;DHT22;9989;48.962;9.182;2022-11-09T05:06:18;12.10;99.90
19680;DHT22;9989;48.962;9.182;2022-11-09T05:08:56;12.10;99.90
19680;DHT22;9989;48.962;9.182;2022-11-09T05:11:23;12.20;99.90
19680;DHT22;9989;48.962;9.182;2022-11-09T05:13:48;12.10;99.90
19680;DHT22;9989;48.962;9.182;2022-11-09T05:16:16;12.10;99.90
19680;DHT22;9989;48.962;9.182;2022-11-09T05:18:42;12.10;99.90
19680;DHT22;9989;48.962;9.182;2022-11-09T05:21:08;12.10;99.90
19680;DHT22;9989;48.962;9.182;2022-11-09T05:23:33;12.10;99.90
19680;DHT22;9989;48.962;9.182;2022-11-09T05:26:17;12.00;99.90
19680;DHT22;9989;48.962;9.182;2022-11-09T05:28:43;12.00;99.90
19680;DHT22;9989;48.962;9.182;2022-11-09T05:31:09;12.00;99.90
19680;DHT22;9989;48.962;9.182;2022-11-09T05:33:35;12.00;99.90
19680;DHT22;9989;48.962;9.182;2022-11-09T05:36:00;12.00;99.90
19680;DHT22;9989;48.962;9.182;2022-11-09T05:38:26;12.00;99.90
19680;DHT22;9989;48.962;9.182;2022-11-09T05:40:53;12.00;99.90
19680;DHT22;9989;48.962;9.182;2022-11-09T05:43:18;12.00;99.90
19680;DHT22;9989;48.962;9.182;2022-11-09T05:45:45;12.00;99.90
19680;DHT22;9989;48.962;9.182;2022-11-09T05:48:12;12.00;99.90
19680;DHT22;9989;48.962;9.182;2022-11-09T05:50:38;12.00;99.90
19680;DHT22;9989;48.962;9.182;2022-11-09T05:53:05;12.00;99.90
19680;DHT22;9989;48.962;9.182;2022-11-09T05:55:31;12.00;99.90
19680;DHT22;9989;48.962;9.182;2022-11-09T05:57:57;12.00;99.90
19680;DHT22;9989;48.962;9.182;2022-11-09T06:00:23;12.00;99.90
19680;DHT22;9989;48.962;9.182;2022-11-09T06:02:48;12.00;99.90
19680;DHT22;9989;48.962;9.182;2022-11-09T06:05:14;12.00;99.90
19680;DHT22;9989;48.962;9.182;2022-11-09T06:07:40;12.10;99.90
19680;DHT22;9989;48.962;9.182;2022-11-09T06:10:07;12.00;99.90
19680;DHT22;9989;48.962;9.182;2022-11-09T06:12:33;12.00;99.90
19680;DHT22;9989;48.962;9.182;2022-11-09T06:14:58;12.00;99.90
19680;DHT22;9989;48.962;9.182;2022-11-09T06:17:24;12.00;99.90
19680;DHT22;9989;48.962;9.182;2022-11-09T06:19:50;12.10;99.90
19680;DHT22;9989;48.962;9.182;2022-11-09T06:22:15;12.10;99.90
19680;DHT22;9989;48.962;9.182;2022-11-09T06:24:41;12.10;99.90
19680;DHT22;9989;48.962;9.182;2022-11-09T06:27:07;12.10;99.90
19680;DHT22;9989;48.962;9.182;2022-11-09T06:29:33;12.10;99.90
19680;DHT22;9989;48.962;9.182;2022-11-09T06:31:59;12.20;99.90
19680;DHT22;9989;48.962;9.182;2022-11-09T06:34:24;12.20;99.90
19680;DHT22;9989;48.962;9.182;2022-11-09T06:36:50;12.20;99.90
19680;DHT22;9989;48.962;9.182;2022-11-09T06:39:15;12.20;99.90
19680;DHT22;9989;48.962;9.182;2022-11-09T06:41:41;12.30;99.90
19680;DHT22;9989;48.962;9.182;2022-11-09T06:44:07;12.30;99.90
19680;DHT22;9989;48.962;9.182;2022-11-09T06:46:33;12.30;99.90
19680;DHT22;9989;48.962;9.182;2022-11-09T06:48:58;12.30;99.90
19680;DHT22;9989;48.962;9.182;2022-11-09T06:51:25;12.30;99.90
19680;DHT22;9989;48.962;9.182;2022-11-09T06:53:50;12.30;99.90
19680;DHT22;9989;48.962;9.182;2022-11-09T06:56:16;12.40;99.90
19680;DHT22;9989;48.962;9.182;2022-11-09T06:58:42;12.40;99.90
19680;DHT22;9989;48.962;9.182;2022-11-09T07:01:09;12.40;99.90
19680;DHT22;9989;48.962;9.182;2022-11-09T07:03:36;12.40;99.90
19680;DHT22;9989;48.962;9.182;2022-11-09T07:06:07;12.40;99.90
19680;DHT22;9989;48.962;9.182;2022-11-09T07:08:34;12.40;99.90
19680;DHT22;9989;48.962;9.182;2022-11-09T07:11:17;12.50;99.90
19680;DHT22;9989;48.962;9.182;2022-11-09T07:13:45;12.40;99.90
19680;DHT22;9989;48.962;9.182;2022-11-09T07:16:11;12.40;99.90
19680;DHT22;9989;48.962;9.182;2022-11-09T07:18:37;12.40;99.90
19680;DHT22;9989;48.962;9.182;2022-11-09T07:21:05;12.30;99.90
19680;DHT22;9989;48.962;9.182;2022-11-09T07:23:31;12.20;99.90
19680;DHT22;9989;48.962;9.182;2022-11-09T07:26:00;12.20;99.90
19680;DHT22;9989;48.962;9.182;2022-11-09T07:28:26;12.20;99.90
19680;DHT22;9989;48.962;9.182;2022-11-09T07:30:52;12.20;99.90
19680;DHT22;9989;48.962;9.182;2022-11-09T07:33:18;12.30;99.90
19680;DHT22;9989;48.962;9.182;2022-11-09T07:35:45;12.30;99.90
19680;DHT22;9989;48.962;9.182;2022-11-09T07:38:11;12.40;99.90
19680;DHT22;9989;48.962;9.182;2022-11-09T07:40:37;12.40;99.90
19680;DHT22;9989;48.962;9.182;2022-11-09T07:43:04;12.50;99.90
19680;DHT22;9989;48.962;9.182;2022-11-09T07:45:31;12.50;99.90
19680;DHT22;9989;48.962;9.182;2022-11-09T07:48:00;12.60;99.90
19680;DHT22;9989;48.962;9.182;2022-11-09T07:50:27;12.60;99.90
19680;DHT22;9989;48.962;9.182;2022-11-09T07:52:54;12.60;99.90
19680;DHT22;9989;48.962;9.182;2022-11-09T07:55:21;12.60;99.90
19680;DHT22;9989;48.962;9.182;2022-11-09T07:57:46;12.70;99.90
19680;DHT22;9989;48.962;9.182;2022-11-09T08:00:12;12.70;99.90
19680;DHT22;9989;48.962;9.182;2022-11-09T08:02:39;12.70;99.90
19680;DHT22;9989;48.962;9.182;2022-11-09T08:05:05;12.70;99.90
19680;DHT22;9989;48.962;9.182;2022-11-09T08:07:30;12.80;99.90
19680;DHT22;9989;48.962;9.182;2022-11-09T08:09:58;12.80;99.90
19680;DHT22;9989;48.962;9.182;2022-11-09T08:12:23;12.80;99.90
19680;DHT22;9989;48.962;9.182;2022-11-09T08:14:49;12.90;99.90
19680;DHT22;9989;48.962;9.182;2022-11-09T08:17:14;12.90;99.90
19680;DHT22;9989;48.962;9.182;2022-11-09T08:19:40;12.90;99.90
19680;DHT22;9989;48.962;9.182;2022-11-09T08:22:05;12.90;99.90
19680;DHT22;9989;48.962;9.182;2022-11-09T08:24:31;13.00;99.90
19680;DHT22;9989;48.962;9.182;2022-11-09T08:26:56;13.00;99.90
19680;DHT22;9989;48.962;9.182;2022-11-09T08:29:22;13.00;99.90
19680;DHT22;9989;48.962;9.182;2022-11-09T08:31:49;13.00;99.90
19680;DHT22;9989;48.962;9.182;2022-11-09T08:34:15;13.00;99.90
19680;DHT22;9989;48.962;9.182;2022-11-09T08:36:41;13.00;99.90
19680;DHT22;9989;48.962;9.182;2022-11-09T08:39:06;13.10;99.90
19680;DHT22;9989;48.962;9.182;2022-11-09T08:41:32;13.10;99.90
19680;DHT22;9989;48.962;9.182;2022-11-09T08:43:58;13.10;99.90
19680;DHT22;9989;48.962;9.182;2022-11-09T08:46:24;13.10;99.90
19680;DHT22;9989;48.962;9.182;2022-11-09T08:48:49;13.10;99.90
19680;DHT22;9989;48.962;9.182;2022-11-09T08:51:15;13.10;99.90
19680;DHT22;9989;48.962;9.182;2022-11-09T08:53:40;13.10;99.90
19680;DHT22;9989;48.962;9.182;2022-11-09T08:56:07;13.10;99.90
19680;DHT22;9989;48.962;9.182;2022-11-09T08:58:33;13.20;99.90
19680;DHT22;9989;48.962;9.182;2022-11-09T09:00:58;13.20;99.90
19680;DHT22;9989;48.962;9.182;2022-11-09T09:03:24;13.20;99.90
19680;DHT22;9989;48.962;9.182;2022-11-09T09:05:50;13.30;99.90
19680;DHT22;9989;48.962;9.182;2022-11-09T09:08:16;13.40;99.90
19680;DHT22;9989;48.962;9.182;2022-11-09T09:10:46;13.40;99.90
19680;DHT22;9989;48.962;9.182;2022-11-09T09:13:12;13.50;99.90
19680;DHT22;9989;48.962;9.182;2022-11-09T09:15:37;13.50;99.90
19680;DHT22;9989;48.962;9.182;2022-11-09T09:18:03;13.50;99.90
19680;DHT22;9989;48.962;9.182;2022-11-09T09:20:29;13.60;99.90
19680;DHT22;9989;48.962;9.182;2022-11-09T09:22:57;13.60;99.90
19680;DHT22;9989;48.962;9.182;2022-11-09T09:25:23;13.60;99.90
19680;DHT22;9989;48.962;9.182;2022-11-09T09:27:49;13.60;99.90
19680;DHT22;9989;48.962;9.182;2022-11-09T09:30:15;13.70;99.90
19680;DHT22;9989;48.962;9.182;2022-11-09T09:32:40;13.80;99.90
19680;DHT22;9989;48.962;9.182;2022-11-09T09:35:07;13.80;99.90
19680;DHT22;9989;48.962;9.182;2022-11-09T09:37:33;13.90;99.90
19680;DHT22;9989;48.962;9.182;2022-11-09T09:39:59;13.90;99.90
19680;DHT22;9989;48.962;9.182;2022-11-09T09:42:34;13.90;99.90
19680;DHT22;9989;48.962;9.182;2022-11-09T09:45:15;14.00;99.90
19680;DHT22;9989;48.962;9.182;2022-11-09T09:50:36;14.10;99.90
19680;DHT22;9989;48.962;9.182;2022-11-09T09:56:13;14.30;99.90
19680;DHT22;9989;48.962;9.182;2022-11-09T09:58:45;14.40;99.90
19680;DHT22;9989;48.962;9.182;2022-11-09T10:01:16;14.50;99.90
19680;DHT22;9989;48.962;9.182;2022-11-09T10:03:42;14.70;99.90
19680;DHT22;9989;48.962;9.182;2022-11-09T10:06:21;14.80;99.90
19680;DHT22;9989;48.962;9.182;2022-11-09T10:24:47;16.80;99.90
19680;DHT22;9989;48.962;9.182;2022-11-09T10:27:35;16.90;99.90
19680;DHT22;9989;48.962;9.182;2022-11-09T10:30:14;17.00;99.90
19680;DHT22;9989;48.962;9.182;2022-11-09T10:32:43;17.10;99.90
19680;DHT22;9989;48.962;9.182;2022-11-09T10:37:40;17.00;99.90
19680;DHT22;9989;48.962;9.182;2022-11-09T10:40:31;16.90;99.90
19680;DHT22;9989;48.962;9.182;2022-11-09T10:43:01;16.80;99.90
19680;DHT22;9989;48.962;9.182;2022-11-09T10:45:36;16.80;99.90
19680;DHT22;9989;48.962;9.182;2022-11-09T10:48:03;16.80;99.90
19680;DHT22;9989;48.962;9.182;2022-11-09T10:53:30;16.80;99.90
19680;DHT22;9989;48.962;9.182;2022-11-09T10:56:03;16.80;99.90
19680;DHT22;9989;48.962;9.182;2022-11-09T11:01:10;16.70;99.90
19680;DHT22;9989;48.962;9.182;2022-11-09T11:03:37;16.70;99.90
19680;DHT22;9989;48.962;9.182;2022-11-09T11:11:20;16.60;99.90
19680;DHT22;9989;48.962;9.182;2022-11-09T11:13:47;16.60;99.90
19680;DHT22;9989;48.962;9.182;2022-11-09T11:16:22;16.60;99.90
19680;DHT22;9989;48.962;9.182;2022-11-09T11:18:48;16.70;99.90
19680;DHT22;9989;48.962;9.182;2022-11-09T11:21:16;16.70;99.90
19680;DHT22;9989;48.962;9.182;2022-11-09T11:23:42;16.70;99.90
19680;DHT22;9989;48.962;9.182;2022-11-09T11:26:19;16.70;99.90
19680;DHT22;9989;48.962;9.182;2022-11-09T11:31:41;16.80;99.90
19680;DHT22;9989;48.962;9.182;2022-11-09T11:34:14;16.90;99.90
19680;DHT22;9989;48.962;9.182;2022-11-09T11:39:37;16.90;99.90
19680;DHT22;9989;48.962;9.182;2022-11-09T11:42:39;16.90;99.90
19680;DHT22;9989;48.962;9.182;2022-11-09T11:47:43;16.80;99.90
19680;DHT22;9989;48.962;9.182;2022-11-09T11:50:22;16.80;99.90
19680;DHT22;9989;48.962;9.182;2022-11-09T11:53:16;16.70;99.90
19680;DHT22;9989;48.962;9.182;2022-11-09T11:56:19;16.60;99.90
19680;DHT22;9989;48.962;9.182;2022-11-09T12:07:19;16.30;99.90
19680;DHT22;9989;48.962;9.182;2022-11-09T12:15:31;16.20;99.90
19680;DHT22;9989;48.962;9.182;2022-11-09T12:18:21;16.20;99.90
19680;DHT22;9989;48.962;9.182;2022-11-09T12:26:37;16.10;99.90
19680;DHT22;9989;48.962;9.182;2022-11-09T12:29:06;16.00;99.90
19680;DHT22;9989;48.962;9.182;2022-11-09T12:31:47;16.00;99.90
19680;DHT22;9989;48.962;9.182;2022-11-09T12:37:06;16.00;99.90
19680;DHT22;9989;48.962;9.182;2022-11-09T12:39:40;15.90;99.90
19680;DHT22;9989;48.962;9.182;2022-11-09T12:42:58;15.90;99.90
19680;DHT22;9989;48.962;9.182;2022-11-09T12:45:31;15.90;99.90
19680;DHT22;9989;48.962;9.182;2022-11-09T12:48:04;16.00;99.90
19680;DHT22;9989;48.962;9.182;2022-11-09T12:50:31;16.00;99.90
19680;DHT22;9989;48.962;9.182;2022-11-09T12:52:58;15.90;99.90
19680;DHT22;9989;48.962;9.182;2022-11-09T12:58:30;16.00;99.90
19680;DHT22;9989;48.962;9.182;2022-11-09T13:00:58;16.00;99.90
19680;DHT22;9989;48.962;9.182;2022-11-09T13:03:32;16.00;99.90
19680;DHT22;9989;48.962;9.182;2022-11-09T13:06:14;16.00;99.90
19680;DHT22;9989;48.962;9.182;2022-11-09T13:09:04;16.00;99.90
19680;DHT22;9989;48.962;9.182;2022-11-09T13:11:44;16.00;99.90
19680;DHT22;9989;48.962;9.182;2022-11-09T13:17:00;16.00;99.90
19680;DHT22;9989;48.962;9.182;2022-11-09T13:25:00;16.10;99.90
19680;DHT22;9989;48.962;9.182;2022-11-09T13:33:28;16.20;99.90
19680;DHT22;9989;48.962;9.182;2022-11-09T13:38:33;16.20;99.90
19680;DHT22;9989;48.962;9.182;2022-11-09T13:41:00;16.20;99.90
19680;DHT22;9989;48.962;9.182;2022-11-09T13:43:31;16.20;99.90
19680;DHT22;9989;48.962;9.182;2022-11-09T13:45:58;16.20;99.90
19680;DHT22;9989;48.962;9.182;2022-11-09T13:50:59;16.30;99.90
19680;DHT22;9989;48.962;9.182;2022-11-09T13:58:42;16.30;99.90
19680;DHT22;9989;48.962;9.182;2022-11-09T14:01:28;16.30;99.90
19680;DHT22;9989;48.962;9.182;2022-11-09T14:03:54;16.30;99.90
19680;DHT22;9989;48.962;9.182;2022-11-09T14:06:20;16.30;99.90
19680;DHT22;9989;48.962;9.182;2022-11-09T14:08:46;16.30;99.90
19680;DHT22;9989;48.962;9.182;2022-11-09T14:21:41;16.30;99.90
19680;DHT22;9989;48.962;9.182;2022-11-09T14:24:18;16.30;99.90
19680;DHT22;9989;48.962;9.182;2022-11-09T14:29:36;16.20;99.90
19680;DHT22;9989;48.962;9.182;2022-11-09T14:35:17;16.10;99.90
19680;DHT22;9989;48.962;9.182;2022-11-09T14:37:43;16.10;99.90
19680;DHT22;9989;48.962;9.182;2022-11-09T14:40:22;16.10;99.90
19680;DHT22;9989;48.962;9.182;2022-11-09T14:42:52;16.00;99.90
19680;DHT22;9989;48.962;9.182;2022-11-09T14:45:18;16.00;99.90
19680;DHT22;9989;48.962;9.182;2022-11-09T14:47:47;16.00;99.90
19680;DHT22;9989;48.962;9.182;2022-11-09T14:50:20;16.00;99.90
19680;DHT22;9989;48.962;9.182;2022-11-09T14:52:46;15.90;99.90
19680;DHT22;9989;48.962;9.182;2022-11-09T14:55:15;15.90;99.90
19680;DHT22;9989;48.962;9.182;2022-11-09T14:57:42;15.90;99.90
19680;DHT22;9989;48.962;9.182;2022-11-09T15:00:38;15.90;99.90
19680;DHT22;9989;48.962;9.182;2022-11-09T15:03:40;15.80;99.90
19680;DHT22;9989;48.962;9.182;2022-11-09T15:06:14;15.80;99.90
19680;DHT22;9989;48.962;9.182;2022-11-09T15:08:56;15.70;99.90
19680;DHT22;9989;48.962;9.182;2022-11-09T15:11:36;15.70;99.90
19680;DHT22;9989;48.962;9.182;2022-11-09T15:16:47;15.60;99.90
19680;DHT22;9989;48.962;9.182;2022-11-09T15:19:49;15.50;99.90
19680;DHT22;9989;48.962;9.182;2022-11-09T15:22:54;15.50;99.90
19680;DHT22;9989;48.962;9.182;2022-11-09T15:31:05;15.40;99.90
19680;DHT22;9989;48.962;9.182;2022-11-09T15:39:18;15.30;99.90
19680;DHT22;9989;48.962;9.182;2022-11-09T15:41:44;15.30;99.90
19680;DHT22;9989;48.962;9.182;2022-11-09T15:44:12;15.20;99.90
19680;DHT22;9989;48.962;9.182;2022-11-09T15:46:42;15.20;99.90
19680;DHT22;9989;48.962;9.182;2022-11-09T15:49:26;15.20;99.90
19680;DHT22;9989;48.962;9.182;2022-11-09T15:51:53;15.20;99.90
19680;DHT22;9989;48.962;9.182;2022-11-09T15:54:20;15.20;99.90
19680;DHT22;9989;48.962;9.182;2022-11-09T15:56:46;15.10;99.90
19680;DHT22;9989;48.962;9.182;2022-11-09T15:59:21;15.10;99.90
19680;DHT22;9989;48.962;9.182;2022-11-09T16:01:47;15.10;99.90
19680;DHT22;9989;48.962;9.182;2022-11-09T16:04:13;15.10;99.90
19680;DHT22;9989;48.962;9.182;2022-11-09T16:06:38;15.10;99.90
19680;DHT22;9989;48.962;9.182;2022-11-09T16:09:04;15.10;99.90
19680;DHT22;9989;48.962;9.182;2022-11-09T16:11:30;15.10;99.90
19680;DHT22;9989;48.962;9.182;2022-11-09T16:13:58;15.10;99.90
19680;DHT22;9989;48.962;9.182;2022-11-09T16:16:24;15.00;99.90
19680;DHT22;9989;48.962;9.182;2022-11-09T16:18:49;15.00;99.90
19680;DHT22;9989;48.962;9.182;2022-11-09T16:21:16;15.00;99.90
19680;DHT22;9989;48.962;9.182;2022-11-09T16:23:42;15.00;99.90
19680;DHT22;9989;48.962;9.182;2022-11-09T16:26:10;14.90;99.90
19680;DHT22;9989;48.962;9.182;2022-11-09T16:28:36;14.90;99.90
19680;DHT22;9989;48.962;9.182;2022-11-09T16:31:04;14.90;99.90
19680;DHT22;9989;48.962;9.182;2022-11-09T16:33:30;14.90;99.90
19680;DHT22;9989;48.962;9.182;2022-11-09T16:35:58;14.90;99.90
19680;DHT22;9989;48.962;9.182;2022-11-09T16:38:27;14.90;99.90
19680;DHT22;9989;48.962;9.182;2022-11-09T16:40:53;14.90;99.90
19680;DHT22;9989;48.962;9.182;2022-11-09T16:43:18;14.80;99.90
19680;DHT22;9989;48.962;9.182;2022-11-09T16:45:47;14.80;99.90
19680;DHT22;9989;48.962;9.182;2022-11-09T16:48:15;14.80;99.90
19680;DHT22;9989;48.962;9.182;2022-11-09T16:50:42;14.80;99.90
19680;DHT22;9989;48.962;9.182;2022-11-09T16:53:08;14.80;99.90
19680;DHT22;9989;48.962;9.182;2022-11-09T16:55:34;14.80;99.90
19680;DHT22;9989;48.962;9.182;2022-11-09T16:57:59;14.70;99.90
19680;DHT22;9989;48.962;9.182;2022-11-09T17:00:25;14.70;99.90
19680;DHT22;9989;48.962;9.182;2022-11-09T17:02:51;14.70;99.90
19680;DHT22;9989;48.962;9.182;2022-11-09T17:05:17;14.70;99.90
19680;DHT22;9989;48.962;9.182;2022-11-09T17:07:43;14.70;99.90
19680;DHT22;9989;48.962;9.182;2022-11-09T17:10:11;14.70;99.90
19680;DHT22;9989;48.962;9.182;2022-11-09T17:12:36;14.70;99.90
19680;DHT22;9989;48.962;9.182;2022-11-09T17:15:02;14.70;99.90
19680;DHT22;9989;48.962;9.182;2022-11-09T17:17:28;14.70;99.90
19680;DHT22;9989;48.962;9.182;2022-11-09T17:19:53;14.70;99.90
19680;DHT22;9989;48.962;9.182;2022-11-09T17:22:19;14.70;99.90
19680;DHT22;9989;48.962;9.182;2022-11-09T17:24:44;14.70;99.90
19680;DHT22;9989;48.962;9.182;2022-11-09T17:27:11;14.70;99.90
19680;DHT22;9989;48.962;9.182;2022-11-09T17:29:38;14.70;99.90
19680;DHT22;9989;48.962;9.182;2022-11-09T17:32:05;14.60;99.90
19680;DHT22;9989;48.962;9.182;2022-11-09T17:34:31;14.70;99.90
19680;DHT22;9989;48.962;9.182;2022-11-09T17:36:56;14.60;99.90
19680;DHT22;9989;48.962;9.182;2022-11-09T17:39:22;14.60;99.90
19680;DHT22;9989;48.962;9.182;2022-11-09T17:41:48;14.60;99.90
19680;DHT22;9989;48.962;9.182;2022-11-09T17:44:14;14.60;99.90
19680;DHT22;9989;48.962;9.182;2022-11-09T17:46:39;14.50;99.90
19680;DHT22;9989;48.962;9.182;2022-11-09T17:49:05;14.50;99.90
19680;DHT22;9989;48.962;9.182;2022-11-09T17:51:31;14.50;99.90
19680;DHT22;9989;48.962;9.182;2022-11-09T17:53:57;14.50;99.90
19680;DHT22;9989;48.962;9.182;2022-11-09T17:56:23;14.50;99.90
19680;DHT22;9989;48.962;9.182;2022-11-09T17:58:49;14.50;99.90